METAR AND TAF INFORMATION
METAR FOR ENRO
ADDS - METARS form results

(0233 UTC 28 September 2020)
Data provider http://aviationweather.gov/metar/data/
 
METAR text: ENRO 280220Z AUTO 12009KT 9999NDV OVC003/// 07/07 Q1017
Conditions at: ENRO (ROROS AIRPORT , NO) observed 0220 UTC 28 September 2020
Temperature: 7.0°C (45°F)
Dewpoint: 7.0°C (45°F) [RH = 100%]
Pressure (altimeter): 30.03 inches Hg (1017.0 mb)
Winds: from the ESE (120 degrees) at 10 MPH (9 knots; 4.6 m/s)
Visibility: missing
Ceiling: 300 feet AGL
Clouds: overcast cloud deck at 300 feet AGL
Weather: no significant weather observed at this time

METAR text: ENRO 280150Z AUTO 11009KT 9999NDV BKN003/// OVC008/// 08/08 Q1017
Conditions at: ENRO (ROROS AIRPORT , NO) observed 0150 UTC 28 September 2020
Temperature: 8.0°C (46°F)
Dewpoint: 8.0°C (46°F) [RH = 100%]
Pressure (altimeter): 30.03 inches Hg (1017.0 mb)
Winds: from the ESE (110 degrees) at 10 MPH (9 knots; 4.6 m/s)
Visibility: missing
Ceiling: 300 feet AGL
Clouds: broken clouds at 300 feet AGL
overcast cloud deck at 800 feet AGL
Weather: no significant weather observed at this time

Forecast for: AMD
Text: TAF AMD ENRO 271448Z 2714/2718 11008KT 9999 -RADZ BKN008
Forecast period: 1400 to 1800 UTC 27 September 2020
Forecast type: FROM: standard forecast or significant change
Winds: from the ESE (110 degrees) at 9 MPH (8 knots; 4.1 m/s)
Visibility: 6 or more miles (10+ km)
Ceiling: 800 feet AGL
Clouds: broken clouds at 800 feet AGL
Weather: -RA -DZ  (light rain, light drizzle)

 AIRPORT MAP

 RUNWAY INFORMATION
Runway 14 Runway length 5643 ft Runway width 131 ft
Runway elevation 2051 ft Runway displaced threshold 197 ft Runway heading 136
Runway 32 Runway length 5643 ft Runway width 131 ft
Runway elevation 2051 ft Runway displaced threshold 459 ft Runway heading 316

 AIRPORT FREQUENCIES
Type TWR Name TWR Frequency 120.4 MHZ

 AIRPORT NEAR NAVIGATION AIDS
Type NDB Name Rambu Frequency 352 KHZ





Powered by Virtual Airlines Manager